Time;durP1;ratioP1;P1;durP2;ratioP2;P2;SDS_P1;SDS_P2;PMS_P1;PMS_P2;Temp;Humidity;BMP_temperature;BMP_pressure;BME280_temperature;BME280_humidity;BME280_pressure;Samples;Min_cycle;Max_cycle;Signal;HPM_P1;HPM_P2
2021/12/30 00:00:18;;;;;;;8.40;2.45;;;;;;;10.10;100.00;101170.25;6240356;22;20077;-85
2021/12/30 00:02:44;;;;;;;1.38;1.05;;;;;;;10.06;100.00;101160.59;6249534;23;20008;-85
2021/12/30 00:05:13;;;;;;;2.15;1.95;;;;;;;10.05;100.00;101162.41;6249006;23;20004;-85
2021/12/30 00:07:39;;;;;;;8.55;2.38;;;;;;;10.05;100.00;101166.84;6249702;23;20000;-85
2021/12/30 00:10:14;;;;;;;1.67;1.20;;;;;;;10.17;100.00;101169.97;6249664;23;20369;-85
2021/12/30 00:12:40;;;;;;;1.17;1.08;;;;;;;10.21;100.00;101160.94;6250638;22;20039;-84
2021/12/30 00:15:07;;;;;;;4.50;0.98;;;;;;;10.28;100.00;101165.13;6249907;22;20008;-85
2021/12/30 00:17:33;;;;;;;1.20;1.10;;;;;;;10.30;100.00;101157.97;6251044;23;20042;-85
2021/12/30 00:20:01;;;;;;;2.40;2.17;;;;;;;10.33;100.00;101163.19;6249438;23;20000;-86
2021/12/30 00:22:37;;;;;;;1.88;1.73;;;;;;;10.44;100.00;101157.47;6250126;23;20011;-86
2021/12/30 00:25:06;;;;;;;0.90;0.77;;;;;;;10.38;100.00;101176.28;6250228;23;20015;-85
2021/12/30 00:27:31;;;;;;;2.10;1.92;;;;;;;10.43;100.00;101172.53;6243060;23;20020;-86
2021/12/30 00:29:57;;;;;;;1.10;0.75;;;;;;;10.45;100.00;101167.16;6248483;23;20015;-85
2021/12/30 00:32:22;;;;;;;3.15;2.70;;;;;;;10.52;100.00;101166.00;6248753;23;20012;-86
2021/12/30 00:34:48;;;;;;;2.63;1.92;;;;;;;10.56;100.00;101170.28;6247886;23;20065;-86
2021/12/30 00:37:13;;;;;;;2.55;2.28;;;;;;;10.58;100.00;101168.44;6249934;23;20000;-86
2021/12/30 00:39:39;;;;;;;1.30;1.00;;;;;;;10.61;100.00;101165.66;6249073;23;20000;-86
2021/12/30 00:42:05;;;;;;;0.90;0.85;;;;;;;10.67;100.00;101173.41;6248122;23;20004;-85
2021/12/30 00:44:30;;;;;;;0.88;0.88;;;;;;;10.80;100.00;101172.00;6248180;23;20323;-85
2021/12/30 00:46:58;;;;;;;1.38;1.17;;;;;;;10.75;100.00;101185.47;6249063;23;19996;-85
2021/12/30 00:49:24;;;;;;;2.40;1.90;;;;;;;10.75;100.00;101182.81;6249181;23;20044;-85
2021/12/30 00:51:49;;;;;;;0.98;0.80;;;;;;;10.80;100.00;101187.97;6247994;23;20011;-85
2021/12/30 00:54:17;;;;;;;1.13;0.90;;;;;;;10.80;100.00;101187.97;6249162;23;20409;-85
2021/12/30 00:56:42;;;;;;;4.82;1.05;;;;;;;10.82;100.00;101180.81;6249295;23;20020;-85
2021/12/30 00:59:08;;;;;;;3.35;0.90;;;;;;;10.88;100.00;101179.69;6249254;23;20017;-85
2021/12/30 01:01:34;;;;;;;0.93;0.75;;;;;;;10.83;100.00;101190.50;6249159;23;20023;-86
2021/12/30 01:03:59;;;;;;;3.88;2.22;;;;;;;10.84;100.00;101184.28;6248769;23;20047;-86
2021/12/30 01:06:24;;;;;;;3.78;1.77;;;;;;;10.86;100.00;101179.75;6249313;23;20008;-86
2021/12/30 01:08:50;;;;;;;1.20;0.68;;;;;;;10.90;100.00;101180.50;6247926;23;20022;-86
2021/12/30 01:11:15;;;;;;;0.75;0.75;;;;;;;10.99;100.00;101183.66;6248246;23;20007;-86
2021/12/30 01:13:44;;;;;;;1.67;1.48;;;;;;;11.03;100.00;101189.75;6248147;23;20031;-86
2021/12/30 01:16:17;;;;;;;2.57;2.37;;;;;;;10.99;100.00;101180.13;6249114;23;20404;-86
2021/12/30 01:19:04;;;;;;;4.95;1.27;;;;;;;11.00;100.00;101188.03;6249061;23;20031;-86
2021/12/30 01:21:53;;;;;;;1.88;1.00;;;;;;;10.93;100.00;101165.31;6248965;23;20007;-86
2021/12/30 01:24:20;;;;;;;1.60;1.50;;;;;;;11.02;100.00;101164.94;6248313;23;20004;-86
2021/12/30 01:26:46;;;;;;;6.18;2.17;;;;;;;11.03;100.00;101171.13;6248412;23;20014;-86
2021/12/30 01:29:11;;;;;;;3.28;2.08;;;;;;;11.06;100.00;101177.19;6249440;23;20004;-86
2021/12/30 01:31:37;;;;;;;2.22;1.25;;;;;;;11.10;100.00;101180.59;6248958;22;20058;-87
2021/12/30 01:34:02;;;;;;;1.83;1.50;;;;;;;11.18;100.00;101200.63;6247692;23;20458;-86
2021/12/30 01:36:27;;;;;;;2.13;1.90;;;;;;;11.13;100.00;101207.91;6248183;23;20004;-86
2021/12/30 01:38:54;;;;;;;2.25;1.45;;;;;;;11.21;100.00;101203.16;6248174;23;20000;-86
2021/12/30 01:41:21;;;;;;;1.60;1.02;;;;;;;11.25;100.00;101215.41;6248711;23;20008;-87
2021/12/30 01:43:47;;;;;;;1.35;1.00;;;;;;;11.30;100.00;101209.94;6249000;23;20000;-86
2021/12/30 01:46:13;;;;;;;3.83;1.33;;;;;;;11.25;100.00;101226.03;6249098;23;20004;-86
2021/12/30 01:48:39;;;;;;;6.22;2.00;;;;;;;11.29;100.00;101227.66;6248576;23;20079;-85
2021/12/30 01:51:06;;;;;;;3.90;1.33;;;;;;;11.28;100.00;101231.25;6248205;23;20004;-86
2021/12/30 01:53:31;;;;;;;2.28;1.80;;;;;;;11.41;100.00;101223.66;6248340;23;20004;-86
2021/12/30 01:55:57;;;;;;;0.95;0.70;;;;;;;11.29;100.00;101230.31;6248457;23;20338;-86
2021/12/30 01:58:23;;;;;;;1.42;1.33;;;;;;;11.35;100.00;101240.72;6247627;23;20325;-86
2021/12/30 02:00:49;;;;;;;4.20;2.25;;;;;;;11.41;100.00;101243.13;6247974;23;20012;-86
2021/12/30 02:03:15;;;;;;;1.92;1.25;;;;;;;11.39;100.00;101238.81;6248591;22;20019;-86
2021/12/30 02:05:41;;;;;;;1.80;1.00;;;;;;;11.36;100.00;101225.63;6248184;23;20004;-85
2021/12/30 02:08:11;;;;;;;2.80;1.33;;;;;;;11.44;100.00;101218.22;6248604;23;20103;-86
2021/12/30 02:10:36;;;;;;;;;;;;;;;11.42;100.00;101231.59;6249344;22;20004;-86
2021/12/30 02:13:02;;;;;;;3.15;0.63;;;;;;;11.33;100.00;101233.75;6248373;23;20029;-86
2021/12/30 02:15:28;;;;;;;1.38;1.27;;;;;;;11.48;100.00;101226.00;6248506;23;20416;-85
2021/12/30 02:17:54;;;;;;;3.20;1.00;;;;;;;11.40;100.00;101229.88;6248697;23;20004;-85
2021/12/30 02:20:43;;;;;;;1.42;1.08;;;;;;;11.48;100.00;101222.47;6248809;23;19996;-85
2021/12/30 02:23:09;;;;;;;1.77;1.25;;;;;;;11.44;100.00;101226.19;6249952;23;20103;-85
2021/12/30 02:25:35;;;;;;;1.88;1.58;;;;;;;11.50;100.00;101229.47;6249253;23;20065;-85
2021/12/30 02:28:06;;;;;;;0.70;0.63;;;;;;;11.43;100.00;101213.81;6251215;22;20392;-85
2021/12/30 02:30:52;;;;;;;2.60;1.17;;;;;;;11.46;100.00;101234.97;6250389;23;20000;-86
2021/12/30 02:33:17;;;;;;;1.33;1.05;;;;;;;11.43;100.00;101227.97;6250762;23;20004;-85
2021/12/30 02:35:42;;;;;;;1.05;0.68;;;;;;;11.55;100.00;101232.78;6250796;23;20112;-85
2021/12/30 02:38:25;;;;;;;2.45;1.40;;;;;;;11.51;100.00;101227.66;6250062;23;20004;-85
2021/12/30 02:40:54;;;;;;;1.35;1.25;;;;;;;11.61;100.00;101240.53;6250573;23;20000;-85
2021/12/30 02:43:24;;;;;;;6.50;2.40;;;;;;;11.50;100.00;101241.91;6250773;23;20004;-85
2021/12/30 02:45:50;;;;;;;6.30;1.55;;;;;;;11.56;100.00;101250.50;6250246;23;20420;-85
2021/12/30 02:48:21;;;;;;;0.85;0.75;;;;;;;11.70;100.00;101250.84;6251016;23;20008;-85
2021/12/30 02:50:48;;;;;;;1.40;1.20;;;;;;;11.58;100.00;101261.94;6250048;23;20004;-85
2021/12/30 02:53:14;;;;;;;5.03;1.55;;;;;;;11.64;100.00;101267.06;6249522;23;20403;-84
2021/12/30 02:55:42;;;;;;;1.40;1.13;;;;;;;11.67;100.00;101266.06;6249619;23;20004;-85
2021/12/30 02:58:07;;;;;;;1.02;0.63;;;;;;;11.65;100.00;101260.81;6250190;23;20006;-85
2021/12/30 03:00:32;;;;;;;0.70;0.60;;;;;;;11.65;100.00;101251.94;6251006;23;20012;-85
2021/12/30 03:02:58;;;;;;;1.65;0.65;;;;;;;11.59;100.00;101261.03;6250518;23;20014;-85
2021/12/30 03:05:24;;;;;;;1.90;0.93;;;;;;;11.59;100.00;101253.03;6250730;23;20440;-85
2021/12/30 03:07:51;;;;;;;0.82;0.70;;;;;;;11.56;100.00;101266.47;6250761;23;20000;-85
2021/12/30 03:10:19;;;;;;;1.40;0.82;;;;;;;11.55;100.00;101264.72;6250889;23;20094;-84
2021/12/30 03:12:45;;;;;;;0.82;0.65;;;;;;;11.51;100.00;101263.13;6250084;23;20439;-86
2021/12/30 03:15:17;;;;;;;2.80;1.23;;;;;;;11.50;100.00;101273.81;6249987;23;20004;-86
2021/12/30 03:17:42;;;;;;;1.10;0.80;;;;;;;11.49;100.00;101266.75;6250019;23;20075;-86
2021/12/30 03:20:09;;;;;;;0.95;0.75;;;;;;;11.51;100.00;101268.44;6248864;23;20008;-86
2021/12/30 03:22:43;;;;;;;3.63;1.65;;;;;;;11.58;100.00;101261.09;6250475;23;20004;-86
2021/12/30 03:25:11;;;;;;;1.70;1.17;;;;;;;11.54;100.00;101265.66;6250594;23;20080;-86
2021/12/30 03:27:36;;;;;;;1.08;0.95;;;;;;;11.55;100.00;101275.38;6250567;23;20004;-86
2021/12/30 03:30:08;;;;;;;2.35;1.73;;;;;;;11.61;100.00;101272.44;6249810;23;20267;-87
2021/12/30 03:32:34;;;;;;;0.70;0.63;;;;;;;11.53;100.00;101276.38;6250326;23;20079;-87
2021/12/30 03:34:59;;;;;;;1.63;1.23;;;;;;;11.51;100.00;101267.56;6248997;23;20004;-87
2021/12/30 03:37:25;;;;;;;2.78;1.42;;;;;;;11.53;100.00;101281.69;6249224;23;20008;-86
2021/12/30 03:39:50;;;;;;;0.40;0.38;;;;;;;11.52;100.00;101272.81;6249651;23;20023;-84
2021/12/30 03:42:16;;;;;;;3.72;1.70;;;;;;;11.54;100.00;101276.31;6249904;23;20071;-86
2021/12/30 03:44:45;;;;;;;3.47;2.38;;;;;;;11.49;100.00;101282.72;6249438;23;20430;-86
2021/12/30 03:47:16;;;;;;;2.45;1.00;;;;;;;11.52;100.00;101306.56;6249993;23;20006;-86
2021/12/30 03:49:46;;;;;;;1.25;1.00;;;;;;;11.55;100.00;101288.66;6250168;23;20368;-84
2021/12/30 03:52:21;;;;;;;9.45;1.13;;;;;;;11.55;100.00;101293.13;6249529;23;20000;-84
2021/12/30 03:54:47;;;;;;;1.77;1.10;;;;;;;11.53;100.00;101311.81;6249555;23;20004;-85
2021/12/30 03:57:12;;;;;;;1.48;1.30;;;;;;;11.49;100.00;101325.28;6249199;23;20385;-85
2021/12/30 03:59:38;;;;;;;2.08;1.40;;;;;;;11.51;100.00;101307.47;6249168;23;20013;-85
2021/12/30 04:02:04;;;;;;;0.73;0.60;;;;;;;11.49;100.00;101315.50;6249534;22;20012;-85
2021/12/30 04:04:30;;;;;;;3.67;1.48;;;;;;;11.51;100.00;101308.34;6249279;23;20039;-86
2021/12/30 04:06:56;;;;;;;3.47;1.77;;;;;;;11.47;100.00;101301.41;6249287;23;20004;-85
2021/12/30 04:09:21;;;;;;;2.28;1.60;;;;;;;11.41;100.00;101312.28;6249482;23;20000;-84
2021/12/30 04:11:47;;;;;;;2.20;1.23;;;;;;;11.44;100.00;101314.81;6248899;23;20046;-84
2021/12/30 04:14:13;;;;;;;2.47;1.73;;;;;;;11.46;100.00;101309.44;6249469;23;20481;-85
2021/12/30 04:16:38;;;;;;;1.65;0.95;;;;;;;11.39;100.00;101305.28;6248139;23;20008;-84
2021/12/30 04:19:05;;;;;;;1.10;0.60;;;;;;;11.48;100.00;101311.13;6248742;23;20004;-84
2021/12/30 04:21:30;;;;;;;2.58;1.42;;;;;;;11.40;100.00;101310.56;6248849;23;20050;-84
2021/12/30 04:23:56;;;;;;;2.05;1.40;;;;;;;11.33;100.00;101318.84;6248676;23;20008;-85
2021/12/30 04:26:22;;;;;;;0.98;0.65;;;;;;;11.42;100.00;101327.31;6249544;23;20301;-86
2021/12/30 04:28:47;;;;;;;1.02;0.82;;;;;;;11.40;100.00;101315.88;6249386;23;20000;-84
2021/12/30 04:31:13;;;;;;;0.75;0.75;;;;;;;11.40;100.00;101330.94;6248934;23;20007;-85
2021/12/30 04:33:39;;;;;;;1.92;1.42;;;;;;;11.41;100.00;101332.72;6248763;23;20409;-86
2021/12/30 04:36:05;;;;;;;1.95;1.05;;;;;;;11.42;100.00;101330.00;6248931;23;20028;-85
2021/12/30 04:38:33;;;;;;;1.95;1.42;;;;;;;11.38;100.00;101331.00;6249357;23;20080;-86
2021/12/30 04:40:59;;;;;;;3.83;1.05;;;;;;;11.40;100.00;101336.28;6249436;23;20008;-86
2021/12/30 04:43:25;;;;;;;1.73;1.30;;;;;;;11.41;100.00;101328.22;6249770;23;20099;-86
2021/12/30 04:45:51;;;;;;;0.80;0.47;;;;;;;11.45;100.00;101326.34;6249093;23;20011;-85
2021/12/30 04:48:17;;;;;;;1.25;0.90;;;;;;;11.38;100.00;101320.38;6250301;23;20034;-85
2021/12/30 04:50:46;;;;;;;0.63;0.60;;;;;;;11.42;100.00;101334.44;6249901;23;20004;-85
2021/12/30 04:53:13;;;;;;;1.60;1.30;;;;;;;11.40;100.00;101318.53;6249503;23;20007;-85
2021/12/30 04:55:39;;;;;;;2.88;0.95;;;;;;;11.47;100.00;101333.31;6249641;23;20000;-85
2021/12/30 04:58:05;;;;;;;4.60;0.90;;;;;;;11.35;100.00;101339.13;6249147;23;20462;-85
2021/12/30 05:00:31;;;;;;;1.50;1.40;;;;;;;11.44;100.00;101324.59;6249112;23;20028;-85
2021/12/30 05:03:13;;;;;;;2.00;1.20;;;;;;;11.46;100.00;101330.72;6248498;23;20004;-86
2021/12/30 05:05:47;;;;;;;3.40;1.75;;;;;;;11.44;100.00;101338.75;6249693;23;20011;-86
2021/12/30 05:08:15;;;;;;;1.40;1.30;;;;;;;11.45;100.00;101323.66;6249139;23;20000;-85
2021/12/30 05:10:42;;;;;;;1.88;0.80;;;;;;;11.48;100.00;101328.88;6248209;23;20004;-86
2021/12/30 05:13:09;;;;;;;0.95;0.90;;;;;;;11.58;100.00;101316.97;6248677;23;20007;-86
2021/12/30 05:15:35;;;;;;;3.58;1.20;;;;;;;11.63;100.00;101301.72;6249394;23;20312;-87
2021/12/30 05:18:14;;;;;;;1.23;0.70;;;;;;;11.70;100.00;101320.03;6247165;23;19999;-87
2021/12/30 05:20:42;;;;;;;0.40;0.38;;;;;;;11.78;100.00;101311.75;6248674;23;20000;-86
2021/12/30 05:23:13;;;;;;;1.33;0.95;;;;;;;11.81;100.00;101311.63;6247871;22;20043;-86
2021/12/30 05:25:39;;;;;;;1.15;0.70;;;;;;;11.87;100.00;101300.72;6247807;23;20008;-86
2021/12/30 05:28:04;;;;;;;1.42;0.93;;;;;;;11.92;100.00;101296.94;6248240;23;20262;-85
2021/12/30 05:30:30;;;;;;;1.38;1.25;;;;;;;11.94;100.00;101307.53;6248760;23;20000;-86
2021/12/30 05:32:56;;;;;;;1.48;1.17;;;;;;;11.97;100.00;101294.97;6248614;22;20012;-86
2021/12/30 05:35:23;;;;;;;1.13;0.77;;;;;;;12.03;100.00;101300.03;6249090;23;20060;-86
2021/12/30 05:37:49;;;;;;;0.45;0.35;;;;;;;12.01;100.00;101283.25;6248346;23;20000;-85
2021/12/30 05:40:18;;;;;;;0.57;0.45;;;;;;;12.09;100.00;101290.91;6247233;23;20070;-85
2021/12/30 05:42:44;;;;;;;1.27;1.17;;;;;;;12.08;100.00;101252.78;6246557;23;20004;-86
2021/12/30 05:45:11;;;;;;;0.75;0.63;;;;;;;12.05;100.00;101252.91;6248915;23;20015;-84
2021/12/30 05:47:37;;;;;;;0.30;0.30;;;;;;;12.05;100.00;101255.56;6247999;23;20000;-85
2021/12/30 05:50:05;;;;;;;0.95;0.85;;;;;;;12.06;100.00;101238.69;6248527;23;20595;-85
2021/12/30 05:52:31;;;;;;;0.77;0.77;;;;;;;12.05;100.00;101239.59;6248284;23;20008;-84
2021/12/30 05:54:56;;;;;;;0.55;0.55;;;;;;;12.04;100.00;101255.63;6247536;23;20008;-85
2021/12/30 05:57:21;;;;;;;0.95;0.85;;;;;;;12.03;100.00;101259.22;6247692;23;20011;-86
2021/12/30 05:59:47;;;;;;;0.95;0.95;;;;;;;11.97;100.00;101263.03;6247815;23;20008;-85
2021/12/30 06:02:12;;;;;;;0.68;0.68;;;;;;;12.04;100.00;101267.16;6249215;23;20014;-85
2021/12/30 06:04:38;;;;;;;0.90;0.73;;;;;;;12.01;100.00;101269.94;6249873;23;20095;-85
2021/12/30 06:07:03;;;;;;;0.85;0.30;;;;;;;12.01;100.00;101267.28;6249509;23;20000;-85
2021/12/30 06:09:28;;;;;;;3.90;1.38;;;;;;;11.92;100.00;101267.69;6249799;23;20455;-85
2021/12/30 06:11:54;;;;;;;2.28;0.30;;;;;;;11.83;100.00;101284.00;6249286;23;19992;-88
2021/12/30 06:14:19;;;;;;;0.30;0.20;;;;;;;11.85;100.00;101290.13;6249573;23;20409;-85
2021/12/30 06:16:45;;;;;;;0.65;0.65;;;;;;;11.79;100.00;101279.75;6247792;23;20003;-86
2021/12/30 06:19:10;;;;;;;5.97;0.70;;;;;;;11.75;100.00;101285.25;6249634;23;20076;-86
2021/12/30 06:21:46;;;;;;;1.40;0.40;;;;;;;11.78;100.00;101309.97;6250931;23;20310;-84
2021/12/30 06:24:11;;;;;;;0.98;0.38;;;;;;;11.82;100.00;101284.94;6250838;23;20015;-85
2021/12/30 06:26:57;;;;;;;0.30;0.30;;;;;;;11.79;100.00;101287.72;6249899;23;20464;-85
2021/12/30 06:29:22;;;;;;;0.40;0.40;;;;;;;11.84;100.00;101288.41;6250030;23;20000;-86
2021/12/30 06:31:47;;;;;;;1.08;0.65;;;;;;;11.82;100.00;101276.94;6250213;23;20031;-86
2021/12/30 06:34:13;;;;;;;0.85;0.45;;;;;;;11.83;100.00;101278.66;6249837;22;20038;-85
2021/12/30 06:36:40;;;;;;;1.58;0.40;;;;;;;11.86;100.00;101294.53;6250462;23;20005;-85
2021/12/30 06:39:05;;;;;;;0.43;0.40;;;;;;;11.88;100.00;101284.69;6250072;23;20004;-89
2021/12/30 06:41:31;;;;;;;0.35;0.30;;;;;;;11.89;100.00;101298.88;6223399;23;20015;-86
2021/12/30 06:43:56;;;;;;;0.73;0.55;;;;;;;11.83;100.00;101293.78;6249192;23;20004;-87
2021/12/30 06:46:23;;;;;;;0.50;0.40;;;;;;;11.81;100.00;101301.84;6249344;23;20027;-86
2021/12/30 06:48:49;;;;;;;0.30;0.30;;;;;;;11.78;100.00;101315.28;6250524;23;20413;-87
2021/12/30 06:51:18;;;;;;;1.65;0.52;;;;;;;11.77;100.00;101312.69;6249951;23;20431;-87
2021/12/30 06:53:44;;;;;;;0.60;0.60;;;;;;;11.78;100.00;101317.06;6250233;23;20328;-86
2021/12/30 06:56:09;;;;;;;0.73;0.43;;;;;;;11.73;100.00;101346.53;6250365;23;20010;-85
2021/12/30 06:58:35;;;;;;;0.60;0.50;;;;;;;11.77;100.00;101326.81;6250223;23;20448;-85
2021/12/30 07:01:01;;;;;;;0.95;0.65;;;;;;;11.81;100.00;101333.78;6248504;23;20019;-88
2021/12/30 07:03:27;;;;;;;1.00;0.52;;;;;;;11.73;100.00;101329.69;6250141;23;20083;-86
2021/12/30 07:05:54;;;;;;;0.40;0.40;;;;;;;11.75;100.00;101330.50;6249074;23;20012;-84
2021/12/30 07:08:20;;;;;;;0.50;0.40;;;;;;;11.84;100.00;101328.34;6249984;23;20000;-85
2021/12/30 07:10:45;;;;;;;1.38;1.27;;;;;;;11.78;100.00;101312.63;6250282;23;20018;-87
2021/12/30 07:13:11;;;;;;;1.85;1.73;;;;;;;11.73;100.00;101330.56;6249477;23;19996;-87
2021/12/30 07:15:36;;;;;;;3.10;1.13;;;;;;;11.66;100.00;101325.53;6250456;23;20028;-86
2021/12/30 07:18:01;;;;;;;2.65;1.73;;;;;;;11.71;100.00;101343.03;6248702;23;20008;-82
2021/12/30 07:20:27;;;;;;;3.00;1.13;;;;;;;11.69;100.00;101336.91;6249272;23;20000;-85
2021/12/30 07:22:52;;;;;;;0.60;0.43;;;;;;;11.65;100.00;101342.41;6249177;23;20336;-84
2021/12/30 07:25:17;;;;;;;2.05;1.35;;;;;;;11.69;100.00;101342.22;6248776;23;20019;-85
2021/12/30 07:27:48;;;;;;;1.42;1.10;;;;;;;11.64;100.00;101346.00;6250322;23;20000;-85
2021/12/30 07:30:15;;;;;;;1.85;1.73;;;;;;;11.66;100.00;101347.66;6250094;23;20427;-85
2021/12/30 07:32:40;;;;;;;1.23;1.13;;;;;;;11.69;100.00;101366.19;6250072;23;20046;-84
2021/12/30 07:35:07;;;;;;;1.35;1.17;;;;;;;11.66;100.00;101365.44;6248654;23;20004;-85
2021/12/30 07:37:33;;;;;;;3.33;1.65;;;;;;;11.75;100.00;101376.59;6247934;23;20004;-85
2021/12/30 07:39:58;;;;;;;1.17;0.68;;;;;;;11.73;100.00;101367.81;6249171;23;20011;-86
2021/12/30 07:42:24;;;;;;;2.95;1.67;;;;;;;11.76;100.00;101375.66;6249391;23;20003;-86
2021/12/30 07:44:49;;;;;;;7.97;1.33;;;;;;;11.70;100.00;101367.94;6248807;23;20018;-86
2021/12/30 07:47:14;;;;;;;1.67;1.30;;;;;;;11.72;100.00;101384.69;6249470;23;20110;-85
2021/12/30 07:49:40;;;;;;;1.27;1.08;;;;;;;11.75;100.00;101392.56;6249529;23;20079;-85
2021/12/30 07:52:06;;;;;;;4.65;1.15;;;;;;;11.72;100.00;101392.66;6249816;23;20004;-87
2021/12/30 07:54:33;;;;;;;6.45;2.42;;;;;;;11.75;100.00;101394.34;6249731;23;20011;-83
2021/12/30 07:56:58;;;;;;;2.42;2.17;;;;;;;11.75;100.00;101400.56;6249930;23;20308;-84
2021/12/30 07:59:24;;;;;;;4.40;2.58;;;;;;;11.78;100.00;101392.44;6248777;23;20012;-88
2021/12/30 08:01:49;;;;;;;2.42;1.52;;;;;;;11.73;100.00;101390.88;6249091;23;20004;-86
2021/12/30 08:04:14;;;;;;;0.32;0.30;;;;;;;11.75;100.00;101413.88;6248367;23;20420;-85
2021/12/30 08:06:40;;;;;;;8.07;1.60;;;;;;;11.76;100.00;101406.72;6248962;23;20011;-86
2021/12/30 08:09:06;;;;;;;3.83;1.98;;;;;;;11.72;100.00;101408.63;6249031;23;20000;-85
2021/12/30 08:11:32;;;;;;;2.70;1.55;;;;;;;11.72;100.00;101407.78;6248553;23;20000;-85
2021/12/30 08:13:59;;;;;;;2.80;0.95;;;;;;;11.77;100.00;101395.19;6252255;23;20019;-85
2021/12/30 08:16:25;;;;;;;3.13;1.15;;;;;;;11.76;100.00;101383.66;6253452;23;20004;-85
2021/12/30 08:18:51;;;;;;;1.83;1.58;;;;;;;11.78;100.00;101394.22;6253913;23;20000;-85
2021/12/30 08:21:16;;;;;;;1.13;0.95;;;;;;;11.73;100.00;101381.13;6249892;23;20007;-85
2021/12/30 08:23:58;;;;;;;1.10;0.82;;;;;;;11.83;100.00;101400.25;6248027;23;20007;-85
2021/12/30 08:26:23;;;;;;;8.32;1.13;;;;;;;11.88;100.00;101415.09;6248928;23;20004;-85
2021/12/30 08:29:11;;;;;;;0.95;0.95;;;;;;;11.94;100.00;101403.38;6248455;23;20004;-85
2021/12/30 08:31:37;;;;;;;2.05;1.88;;;;;;;11.95;100.00;101399.75;6248804;23;20027;-85
2021/12/30 08:34:07;;;;;;;3.95;0.77;;;;;;;12.00;100.00;101408.44;6248937;23;20008;-85
2021/12/30 08:36:33;;;;;;;1.58;1.20;;;;;;;12.00;100.00;101404.00;6249492;23;20058;-85
2021/12/30 08:38:58;;;;;;;1.30;1.13;;;;;;;12.02;100.00;101410.09;6248798;23;20313;-85
2021/12/30 08:41:24;;;;;;;1.83;1.58;;;;;;;12.04;100.00;101397.59;6247847;23;20011;-85
2021/12/30 08:43:50;;;;;;;2.60;1.35;;;;;;;12.11;100.00;101403.56;6248520;23;20011;-85
2021/12/30 08:46:15;;;;;;;3.90;2.88;;;;;;;12.12;100.00;101398.16;6248993;23;20012;-85
2021/12/30 08:48:41;;;;;;;7.70;2.03;;;;;;;12.12;100.00;101414.16;6248697;23;20328;-85
2021/12/30 08:51:06;;;;;;;2.13;1.95;;;;;;;12.21;100.00;101396.94;6249485;23;19999;-85
2021/12/30 08:53:32;;;;;;;0.50;0.50;;;;;;;12.22;100.00;101401.34;6249044;23;20332;-85
2021/12/30 08:55:57;;;;;;;1.50;1.35;;;;;;;12.22;100.00;101414.66;6248253;23;20004;-85
2021/12/30 08:58:23;;;;;;;4.85;1.83;;;;;;;12.23;100.00;101425.25;6248837;22;20000;-86
2021/12/30 09:00:49;;;;;;;3.78;2.45;;;;;;;12.28;100.00;101415.28;6250575;23;20373;-86
2021/12/30 09:03:17;;;;;;;0.55;0.47;;;;;;;12.34;100.00;101415.00;6250620;23;20125;-85
2021/12/30 09:05:42;;;;;;;7.30;0.90;;;;;;;12.34;100.00;101403.47;6249865;23;20071;-85
2021/12/30 09:08:09;;;;;;;0.77;0.70;;;;;;;12.47;100.00;101418.03;6249890;23;20007;-86
2021/12/30 09:10:40;;;;;;;2.67;2.05;;;;;;;12.46;100.00;101404.78;6249693;23;20008;-85
2021/12/30 09:13:08;;;;;;;5.68;1.08;;;;;;;12.46;100.00;101418.97;6249901;23;20019;-85
2021/12/30 09:15:34;;;;;;;4.60;1.60;;;;;;;12.51;100.00;101426.78;6250052;23;20060;-85
2021/12/30 09:18:01;;;;;;;1.85;1.48;;;;;;;12.60;100.00;101416.63;6248577;23;20012;-85
2021/12/30 09:20:26;;;;;;;2.00;1.58;;;;;;;12.60;100.00;101411.28;6249024;23;20012;-85
2021/12/30 09:22:53;;;;;;;1.33;0.88;;;;;;;12.69;100.00;101426.88;6249103;23;20008;-85
2021/12/30 09:25:22;;;;;;;2.95;1.95;;;;;;;12.69;100.00;101431.34;6250067;23;20088;-85
2021/12/30 09:27:48;;;;;;;1.08;0.75;;;;;;;12.64;100.00;101428.03;6251412;23;20004;-85
2021/12/30 09:30:15;;;;;;;2.40;0.70;;;;;;;12.75;100.00;101431.09;6249295;23;19995;-85
2021/12/30 09:32:42;;;;;;;5.35;1.67;;;;;;;12.70;100.00;101433.09;6248808;23;20054;-85
2021/12/30 09:35:09;;;;;;;4.00;2.10;;;;;;;12.62;100.00;101405.88;6248342;23;20015;-85
2021/12/30 09:37:35;;;;;;;2.10;0.50;;;;;;;12.58;100.00;101433.56;6248896;23;20078;-85
2021/12/30 09:40:01;;;;;;;1.48;0.88;;;;;;;12.55;100.00;101423.06;6261059;23;20000;-84
2021/12/30 09:42:27;;;;;;;0.50;0.40;;;;;;;12.63;100.00;101432.47;6268019;23;20309;-87
2021/12/30 09:44:54;;;;;;;1.48;0.73;;;;;;;12.49;100.00;101431.31;6266514;22;20059;-85
2021/12/30 09:47:19;;;;;;;1.25;0.88;;;;;;;12.45;100.00;101449.19;6267472;23;20004;-85
2021/12/30 09:52:13;;;;;;;3.60;1.17;;;;;;;12.35;100.00;101454.03;6265459;22;20050;-85
2021/12/30 09:54:44;;;;;;;6.50;1.10;;;;;;;12.34;100.00;101456.75;6265627;23;20007;-84
2021/12/30 09:57:19;;;;;;;1.05;0.82;;;;;;;12.43;100.00;101452.88;6266033;23;20000;-85
2021/12/30 09:59:53;;;;;;;4.90;1.08;;;;;;;12.45;100.00;101445.69;6259334;23;20004;-85
2021/12/30 10:02:18;;;;;;;2.78;0.60;;;;;;;12.43;100.00;101453.75;6248961;23;20099;-85
2021/12/30 10:04:44;;;;;;;1.95;0.88;;;;;;;12.44;100.00;101443.94;6248954;23;20083;-85
2021/12/30 10:07:21;;;;;;;2.67;1.67;;;;;;;12.50;100.00;101457.88;6248761;23;20007;-85
2021/12/30 10:09:50;;;;;;;5.07;1.55;;;;;;;12.50;100.00;101471.19;6248132;23;20309;-85
2021/12/30 10:12:34;;;;;;;11.60;1.93;;;;;;;12.56;100.00;101454.13;6249697;23;20124;-85
2021/12/30 10:15:00;;;;;;;4.43;0.65;;;;;;;12.48;100.00;101469.53;6248612;23;20556;-85
2021/12/30 10:17:28;;;;;;;0.68;0.50;;;;;;;12.52;100.00;101456.03;6248625;23;20000;-85
2021/12/30 10:20:13;;;;;;;0.70;0.35;;;;;;;12.48;100.00;101459.72;6248947;22;20091;-85
2021/12/30 10:22:38;;;;;;;3.30;1.70;;;;;;;12.46;100.00;101455.41;6249559;23;20004;-86
2021/12/30 10:25:04;;;;;;;3.40;1.15;;;;;;;12.38;100.00;101461.91;6247801;23;20003;-85
2021/12/30 10:27:34;;;;;;;3.05;1.52;;;;;;;12.33;100.00;101471.91;6247600;23;20009;-86
2021/12/30 10:29:59;;;;;;;2.25;1.48;;;;;;;12.33;100.00;101471.91;6248220;23;20000;-85
2021/12/30 10:32:27;;;;;;;1.67;0.90;;;;;;;12.24;100.00;101448.25;6247451;23;20007;-85
2021/12/30 10:35:11;;;;;;;0.50;0.40;;;;;;;12.24;100.00;101456.25;6247543;23;20015;-86
2021/12/30 10:37:41;;;;;;;1.17;1.10;;;;;;;12.26;100.00;101459.72;6247778;23;20004;-85
2021/12/30 10:40:27;;;;;;;0.70;0.70;;;;;;;12.12;100.00;101456.75;6248036;23;20096;-85
2021/12/30 10:43:31;;;;;;;6.45;0.77;;;;;;;12.18;100.00;101476.97;6247022;23;20012;-85
2021/12/30 10:46:17;;;;;;;0.98;0.88;;;;;;;12.16;100.00;101486.81;6248118;23;20033;-85
2021/12/30 10:48:57;;;;;;;0.52;0.52;;;;;;;12.11;100.00;101502.06;6250794;23;20079;-84
2021/12/30 10:51:32;;;;;;;0.47;0.45;;;;;;;12.00;100.00;101482.97;6249940;23;20036;-85
2021/12/30 10:53:59;;;;;;;6.72;1.42;;;;;;;11.99;100.00;101487.44;6249773;23;20019;-85
2021/12/30 10:56:26;;;;;;;2.03;1.08;;;;;;;12.04;100.00;101484.59;6249496;23;20060;-85
2021/12/30 10:59:06;;;;;;;3.15;1.10;;;;;;;12.04;100.00;101493.44;6249856;23;20504;-85
2021/12/30 11:01:37;;;;;;;1.17;1.08;;;;;;;12.11;100.00;101486.09;6251353;23;19996;-85
2021/12/30 11:04:03;;;;;;;1.05;0.88;;;;;;;12.12;100.00;101494.03;6249849;23;20012;-83
2021/12/30 11:06:28;;;;;;;1.90;0.45;;;;;;;12.11;100.00;101492.31;6249977;23;20026;-85
2021/12/30 11:09:11;;;;;;;1.67;0.73;;;;;;;12.11;100.00;101494.97;6248392;23;20004;-85
2021/12/30 11:11:40;;;;;;;2.67;0.60;;;;;;;12.14;100.00;101492.19;6248531;23;20014;-85
2021/12/30 11:14:09;;;;;;;0.60;0.60;;;;;;;12.22;100.00;101491.88;6250067;23;20246;-85
2021/12/30 11:17:04;;;;;;;0.57;0.53;;;;;;;12.19;100.00;101484.88;6249687;23;20008;-85
2021/12/30 11:19:35;;;;;;;3.95;1.50;;;;;;;12.19;100.00;101498.19;6249215;23;20239;-85
2021/12/30 11:22:04;;;;;;;6.60;0.98;;;;;;;12.27;100.00;101488.09;6248845;23;20003;-86